Time,TemperatureF,DewpointF,PressureIn,WindDirection,WindDirectionDegrees,WindSpeedMPH,WindSpeedGustMPH,Humidity,HourlyPrecipIn,Conditions,Clouds,dailyrainin,SoftwareType,DateUTC
2013-07-10 00:01:00,70.9,69.7,29.99,South,188,0.0,6.0,96,0.00,,,0.00,Wunderground v.1.15,2013-07-10 04:01:00,
2013-07-10 00:02:00,70.8,69.6,29.99,South,188,0.0,6.0,96,0.00,,,0.00,Wunderground v.1.15,2013-07-10 04:02:00,
2013-07-10 00:06:00,70.8,69.6,30.00,SSW,200,0.0,6.0,96,0.00,,,0.00,Wunderground v.1.15,2013-07-10 04:06:00,
2013-07-10 00:11:00,70.9,69.7,29.99,West,279,0.0,6.0,96,0.00,,,0.00,Wunderground v.1.15,2013-07-10 04:11:00,
2013-07-10 00:12:00,70.8,69.6,29.99,West,281,0.0,6.0,96,0.00,,,0.00,Wunderground v.1.15,2013-07-10 04:12:00,
2013-07-10 00:17:00,70.7,69.5,29.99,NNE,26,0.0,6.0,96,0.00,,,0.00,Wunderground v.1.15,2013-07-10 04:17:00,
2013-07-10 00:23:00,70.6,69.4,29.99,NNE,25,0.0,6.0,96,0.00,,,0.00,Wunderground v.1.15,2013-07-10 04:23:00,
2013-07-10 00:29:00,70.5,69.3,29.99,NNE,17,0.0,6.0,96,0.00,,,0.00,Wunderground v.1.15,2013-07-10 04:29:00,
2013-07-10 00:35:00,70.5,69.3,29.99,NNE,17,0.0,6.0,96,0.00,,,0.00,Wunderground v.1.15,2013-07-10 04:35:00,
2013-07-10 00:41:00,70.5,69.3,29.99,NNE,26,0.0,6.0,96,0.00,,,0.00,Wunderground v.1.15,2013-07-10 04:41:00,
2013-07-10 00:47:00,70.6,69.4,29.98,NE,46,1.0,6.0,96,0.00,,,0.01,Wunderground v.1.15,2013-07-10 04:47:00,
2013-07-10 00:52:00,70.5,69.3,29.97,NNE,19,1.0,6.0,96,0.00,,,0.01,Wunderground v.1.15,2013-07-10 04:52:00,
2013-07-10 00:57:00,70.4,69.2,29.97,NNE,28,0.0,6.0,96,0.00,,,0.01,Wunderground v.1.15,2013-07-10 04:57:00,
2013-07-10 01:03:00,70.3,69.1,29.97,North,360,0.0,6.0,96,0.00,,,0.01,Wunderground v.1.15,2013-07-10 05:03:00,
2013-07-10 01:09:00,70.2,69.0,29.96,North,5,0.0,6.0,96,0.00,,,0.01,Wunderground v.1.15,2013-07-10 05:09:00,
2013-07-10 01:14:00,70.1,68.9,29.96,NE,55,0.0,6.0,96,0.00,,,0.01,Wunderground v.1.15,2013-07-10 05:14:00,
2013-07-10 01:19:00,70.1,68.9,29.95,NE,55,0.0,6.0,96,0.00,,,0.01,Wunderground v.1.15,2013-07-10 05:19:00,
2013-07-10 01:25:00,70.0,68.8,29.95,NE,55,0.0,6.0,96,0.00,,,0.01,Wunderground v.1.15,2013-07-10 05:25:00,
2013-07-10 01:30:00,69.9,68.7,29.95,NE,55,0.0,6.0,96,0.00,,,0.01,Wunderground v.1.15,2013-07-10 05:30:00,
2013-07-10 01:35:00,69.8,68.6,29.94,NE,55,0.0,6.0,96,0.00,,,0.01,Wunderground v.1.15,2013-07-10 05:35:00,
2013-07-10 01:41:00,69.7,68.5,29.94,NE,55,0.0,6.0,96,0.00,,,0.01,Wunderground v.1.15,2013-07-10 05:41:00,
2013-07-10 01:47:00,69.6,68.4,29.95,NE,55,0.0,6.0,96,0.00,,,0.01,Wunderground v.1.15,2013-07-10 05:47:00,
2013-07-10 01:53:00,69.5,68.3,29.94,NE,55,0.0,6.0,96,0.00,,,0.01,Wunderground v.1.15,2013-07-10 05:53:00,
2013-07-10 01:58:00,69.4,68.2,29.94,NE,55,0.0,6.0,96,0.00,,,0.01,Wunderground v.1.15,2013-07-10 05:58:00,
2013-07-10 02:04:00,69.3,68.1,29.95,NE,55,0.0,6.0,96,0.00,,,0.01,Wunderground v.1.15,2013-07-10 06:04:00,
2013-07-10 02:10:00,69.3,68.1,29.95,NE,55,0.0,6.0,96,0.00,,,0.01,Wunderground v.1.15,2013-07-10 06:10:00,
2013-07-10 02:15:00,69.3,68.1,29.95,NE,55,0.0,6.0,96,0.00,,,0.01,Wunderground v.1.15,2013-07-10 06:15:00,
2013-07-10 02:20:00,69.3,68.1,29.95,NE,55,0.0,6.0,96,0.00,,,0.01,Wunderground v.1.15,2013-07-10 06:20:00,
2013-07-10 02:26:00,69.2,68.0,29.94,NE,55,0.0,6.0,96,0.00,,,0.01,Wunderground v.1.15,2013-07-10 06:26:00,
2013-07-10 02:31:00,69.1,67.9,29.94,NE,55,0.0,6.0,96,0.00,,,0.01,Wunderground v.1.15,2013-07-10 06:31:00,
2013-07-10 02:37:00,69.1,67.9,29.94,NE,55,0.0,6.0,96,0.00,,,0.01,Wunderground v.1.15,2013-07-10 06:37:00,
2013-07-10 02:43:00,69.1,67.9,29.94,NE,55,0.0,6.0,96,0.00,,,0.01,Wunderground v.1.15,2013-07-10 06:43:00,
2013-07-10 02:48:00,69.0,67.8,29.93,NE,55,0.0,6.0,96,0.00,,,0.01,Wunderground v.1.15,2013-07-10 06:48:00,
2013-07-10 02:54:00,68.9,67.7,29.93,NE,55,0.0,6.0,96,0.00,,,0.01,Wunderground v.1.15,2013-07-10 06:54:00,
2013-07-10 02:59:00,68.8,67.6,29.93,NE,55,0.0,6.0,96,0.00,,,0.01,Wunderground v.1.15,2013-07-10 06:59:00,
2013-07-10 03:05:00,68.8,67.6,29.94,NE,55,0.0,6.0,96,0.00,,,0.01,Wunderground v.1.15,2013-07-10 07:05:00,
2013-07-10 03:11:00,68.9,67.7,29.94,NE,55,0.0,6.0,96,0.00,,,0.01,Wunderground v.1.15,2013-07-10 07:11:00,
2013-07-10 03:17:00,68.8,67.6,29.94,NE,55,0.0,6.0,96,0.00,,,0.01,Wunderground v.1.15,2013-07-10 07:17:00,
2013-07-10 03:23:00,68.7,67.5,29.94,NE,55,0.0,6.0,96,0.00,,,0.01,Wunderground v.1.15,2013-07-10 07:23:00,
2013-07-10 03:28:00,68.7,67.5,29.94,NE,55,0.0,6.0,96,0.00,,,0.01,Wunderground v.1.15,2013-07-10 07:28:00,
2013-07-10 07:45:00,69.2,68.3,29.95,NW,324,0.0,6.0,97,0.00,,,0.01,Wunderground v.1.15,2013-07-10 11:45:00,
2013-07-10 07:55:00,69.5,68.6,29.95,NW,324,0.0,6.0,97,0.00,,,0.01,Wunderground v.1.15,2013-07-10 11:55:00,
2013-07-10 08:00:00,69.5,68.6,29.94,NW,324,0.0,0.0,97,0.00,,,0.01,Wunderground v.1.15,2013-07-10 12:00:00,
2013-07-10 08:10:00,69.6,68.7,29.94,NW,324,0.0,0.0,97,0.00,,,0.01,Wunderground v.1.15,2013-07-10 12:10:00,
2013-07-10 08:20:00,69.8,68.9,29.94,NW,324,0.0,0.0,97,0.00,,,0.01,Wunderground v.1.15,2013-07-10 12:20:00,
2013-07-10 08:30:00,69.9,69.0,29.94,NW,324,0.0,0.0,97,0.00,,,0.01,Wunderground v.1.15,2013-07-10 12:30:00,
2013-07-10 08:40:00,70.0,69.1,29.94,NW,324,0.0,0.0,97,0.00,,,0.01,Wunderground v.1.15,2013-07-10 12:40:00,
2013-07-10 08:50:00,70.1,69.2,29.95,NW,324,0.0,0.0,97,0.00,,,0.01,Wunderground v.1.15,2013-07-10 12:50:00,
2013-07-10 09:00:00,70.2,69.3,29.95,NW,324,0.0,0.0,97,0.00,,,0.01,Wunderground v.1.15,2013-07-10 13:00:00,
2013-07-10 09:10:00,70.7,70.1,29.94,NW,324,0.0,0.0,98,0.00,,,0.01,Wunderground v.1.15,2013-07-10 13:10:00,
2013-07-10 09:20:00,70.8,69.9,29.94,NW,324,0.0,0.0,97,0.00,,,0.01,Wunderground v.1.15,2013-07-10 13:20:00,
2013-07-10 09:30:00,71.0,70.1,29.95,NW,324,0.0,0.0,97,0.00,,,0.01,Wunderground v.1.15,2013-07-10 13:30:00,
2013-07-10 09:40:00,71.4,70.2,29.94,NW,324,0.0,0.0,96,0.00,,,0.01,Wunderground v.1.15,2013-07-10 13:40:00,
2013-07-10 09:50:00,71.7,70.2,29.94,NW,321,0.0,0.0,95,0.00,,,0.01,Wunderground v.1.15,2013-07-10 13:50:00,
2013-07-10 09:55:00,71.9,70.4,29.94,NW,321,0.0,0.0,95,0.00,,,0.01,Wunderground v.1.15,2013-07-10 13:55:00,
2013-07-10 10:00:00,72.1,70.6,29.94,NW,321,0.0,0.0,95,0.00,,,0.01,Wunderground v.1.15,2013-07-10 14:00:00,
2013-07-10 10:10:00,72.2,70.7,29.94,SW,221,0.0,0.0,95,0.00,,,0.01,Wunderground v.1.15,2013-07-10 14:10:00,
2013-07-10 10:20:00,72.2,70.4,29.94,SW,219,0.0,0.0,94,0.00,,,0.01,Wunderground v.1.15,2013-07-10 14:20:00,
2013-07-10 10:30:00,72.5,70.7,29.94,SW,219,0.0,0.0,94,0.00,,,0.01,Wunderground v.1.15,2013-07-10 14:30:00,
2013-07-10 10:40:00,72.9,70.8,29.94,SW,222,0.0,0.0,93,0.00,,,0.01,Wunderground v.1.15,2013-07-10 14:40:00,
2013-07-10 10:45:00,73.4,71.3,29.94,SW,222,0.0,0.0,93,0.00,,,0.01,Wunderground v.1.15,2013-07-10 14:45:00,
2013-07-10 10:55:00,74.1,71.6,29.94,SSW,208,0.0,0.0,92,0.00,,,0.01,Wunderground v.1.15,2013-07-10 14:55:00,
2013-07-10 11:00:00,74.3,71.5,29.95,West,274,0.0,0.0,91,0.00,,,0.01,Wunderground v.1.15,2013-07-10 15:00:00,
2013-07-10 11:10:00,74.7,71.6,29.94,West,272,0.0,0.0,90,0.00,,,0.01,Wunderground v.1.15,2013-07-10 15:10:00,
2013-07-10 11:15:00,75.1,72.0,29.94,West,270,0.0,0.0,90,0.00,,,0.01,Wunderground v.1.15,2013-07-10 15:15:00,
2013-07-10 11:25:00,75.7,72.2,29.95,NW,304,0.0,0.0,89,0.00,,,0.01,Wunderground v.1.15,2013-07-10 15:25:00,
2013-07-10 11:35:00,76.6,73.1,29.95,SW,229,0.0,0.0,89,0.00,,,0.01,Wunderground v.1.15,2013-07-10 15:35:00,
2013-07-10 11:40:00,77.1,73.3,29.94,SW,229,0.0,0.0,88,0.00,,,0.01,Wunderground v.1.15,2013-07-10 15:40:00,
2013-07-10 11:50:00,78.4,73.9,29.94,SW,221,0.0,0.0,86,0.00,,,0.01,Wunderground v.1.15,2013-07-10 15:50:00,
2013-07-10 12:00:00,78.8,73.2,29.94,WNW,292,0.0,0.0,83,0.00,,,0.01,Wunderground v.1.15,2013-07-10 16:00:00,
2013-07-10 12:10:00,79.6,74.3,29.93,West,269,0.0,0.0,84,0.00,,,0.01,Wunderground v.1.15,2013-07-10 16:10:00,
2013-07-10 12:15:00,79.9,73.9,29.93,West,267,0.0,0.0,82,0.00,,,0.01,Wunderground v.1.15,2013-07-10 16:15:00,
2013-07-10 12:25:00,80.8,74.8,29.93,SSW,207,1.0,1.0,82,0.00,,,0.01,Wunderground v.1.15,2013-07-10 16:25:00,
2013-07-10 12:35:00,81.1,74.7,29.93,SSW,201,1.0,1.0,81,0.00,,,0.01,Wunderground v.1.15,2013-07-10 16:35:00,
2013-07-10 12:40:00,81.6,75.9,29.92,SW,225,0.0,0.0,83,0.00,,,0.01,Wunderground v.1.15,2013-07-10 16:40:00,
2013-07-10 12:50:00,82.4,76.0,29.92,SSW,198,0.0,0.0,81,0.00,,,0.01,Wunderground v.1.15,2013-07-10 16:50:00,
2013-07-10 13:00:00,83.0,75.8,29.91,West,273,0.0,0.0,79,0.00,,,0.01,Wunderground v.1.15,2013-07-10 17:00:00,
2013-07-10 13:10:00,83.7,75.7,29.91,SSW,200,1.0,1.0,77,0.00,,,0.01,Wunderground v.1.15,2013-07-10 17:10:00,
2013-07-10 13:20:00,83.4,75.4,29.89,SSW,202,0.0,0.0,77,0.00,,,0.01,Wunderground v.1.15,2013-07-10 17:20:00,
2013-07-10 13:30:00,83.2,74.8,29.89,West,267,0.0,0.0,76,0.00,,,0.01,Wunderground v.1.15,2013-07-10 17:30:00,
2013-07-10 13:35:00,83.6,75.6,29.90,WNW,284,0.0,0.0,77,0.00,,,0.01,Wunderground v.1.15,2013-07-10 17:35:00,
2013-07-10 13:45:00,84.7,75.9,29.89,South,184,1.0,1.0,75,0.00,,,0.01,Wunderground v.1.15,2013-07-10 17:45:00,
2013-07-10 13:55:00,85.6,76.4,29.88,SSW,194,0.0,0.0,74,0.00,,,0.01,Wunderground v.1.15,2013-07-10 17:55:00,
2013-07-10 14:00:00,85.2,76.0,29.88,SW,217,1.0,6.0,74,0.00,,,0.01,Wunderground v.1.15,2013-07-10 18:00:00,
2013-07-10 14:10:00,84.8,76.0,29.88,SSW,201,2.0,2.0,75,0.00,,,0.01,Wunderground v.1.15,2013-07-10 18:10:00,
2013-07-10 14:20:00,83.9,75.9,29.87,SSW,211,1.0,5.0,77,0.00,,,0.01,Wunderground v.1.15,2013-07-10 18:20:00,
2013-07-10 14:30:00,82.7,75.9,29.87,SSW,209,2.0,2.0,80,0.00,,,0.01,Wunderground v.1.15,2013-07-10 18:30:00,
2013-07-10 14:40:00,81.8,74.6,29.87,SSW,207,5.0,5.0,79,0.00,,,0.01,Wunderground v.1.15,2013-07-10 18:40:00,
2013-07-10 14:50:00,81.6,76.3,29.87,SSW,207,1.0,5.0,84,0.00,,,0.02,Wunderground v.1.15,2013-07-10 18:50:00,
2013-07-10 15:00:00,81.2,76.3,29.87,WSW,242,1.0,1.0,85,0.00,,,0.02,Wunderground v.1.15,2013-07-10 19:00:00,
2013-07-10 15:10:00,81.4,76.8,29.86,SW,216,0.0,0.0,86,0.00,,,0.02,Wunderground v.1.15,2013-07-10 19:10:00,
2013-07-10 15:15:00,81.2,75.5,29.86,South,180,3.0,5.0,83,0.00,,,0.02,Wunderground v.1.15,2013-07-10 19:15:00,
2013-07-10 15:25:00,80.5,74.9,29.84,South,184,7.0,10.0,83,0.00,,,0.02,Wunderground v.1.15,2013-07-10 19:25:00,
2013-07-10 15:35:00,80.3,74.3,29.84,SSW,201,5.0,7.0,82,0.00,,,0.02,Wunderground v.1.15,2013-07-10 19:35:00,
2013-07-10 15:45:00,79.9,74.3,29.85,SSW,192,1.0,3.0,83,0.00,,,0.02,Wunderground v.1.15,2013-07-10 19:45:00,
2013-07-10 15:55:00,79.6,73.6,29.86,NNW,331,0.0,0.0,82,0.00,,,0.02,Wunderground v.1.15,2013-07-10 19:55:00,
2013-07-10 16:00:00,79.1,72.4,29.86,NNW,327,0.0,0.0,80,0.00,,,0.02,Wunderground v.1.15,2013-07-10 20:00:00,
2013-07-10 16:10:00,77.7,71.4,29.85,NE,46,0.0,0.0,81,0.00,,,0.02,Wunderground v.1.15,2013-07-10 20:10:00,
2013-07-10 16:15:00,76.9,71.3,29.85,NE,46,0.0,0.0,83,0.00,,,0.02,Wunderground v.1.15,2013-07-10 20:15:00,
2013-07-10 16:25:00,75.8,71.7,29.85,NE,52,0.0,0.0,87,0.00,,,0.03,Wunderground v.1.15,2013-07-10 20:25:00,
2013-07-10 16:35:00,75.3,71.5,29.84,NE,52,0.0,0.0,88,0.00,,,0.03,Wunderground v.1.15,2013-07-10 20:35:00,
2013-07-10 16:40:00,75.2,71.7,29.84,NE,52,0.0,0.0,89,0.00,,,0.03,Wunderground v.1.15,2013-07-10 20:40:00,
2013-07-10 16:50:00,75.0,71.5,29.85,NE,52,0.0,0.0,89,0.00,,,0.03,Wunderground v.1.15,2013-07-10 20:50:00,
2013-07-10 17:00:00,75.4,72.3,29.86,NE,52,0.0,0.0,90,0.00,,,0.03,Wunderground v.1.15,2013-07-10 21:00:00,
2013-07-10 17:10:00,75.9,72.8,29.85,NE,46,0.0,0.0,90,0.00,,,0.03,Wunderground v.1.15,2013-07-10 21:10:00,
2013-07-10 17:20:00,76.7,73.5,29.85,NE,46,0.0,0.0,90,0.00,,,0.03,Wunderground v.1.15,2013-07-10 21:20:00,
2013-07-10 17:30:00,78.0,73.8,29.85,NE,46,0.0,0.0,87,0.00,,,0.03,Wunderground v.1.15,2013-07-10 21:30:00,
2013-07-10 17:40:00,78.9,73.3,29.84,NE,46,0.0,0.0,83,0.00,,,0.03,Wunderground v.1.15,2013-07-10 21:40:00,
2013-07-10 17:45:00,79.2,73.6,29.84,NE,46,0.0,0.0,83,0.00,,,0.03,Wunderground v.1.15,2013-07-10 21:45:00,
2013-07-10 17:55:00,79.1,73.5,29.84,NE,46,0.0,0.0,83,0.00,,,0.03,Wunderground v.1.15,2013-07-10 21:55:00,
2013-07-10 18:05:00,79.2,73.9,29.84,NE,46,0.0,0.0,84,0.00,,,0.03,Wunderground v.1.15,2013-07-10 22:05:00,
2013-07-10 18:15:00,79.3,74.7,29.84,NE,46,0.0,0.0,86,0.00,,,0.03,Wunderground v.1.15,2013-07-10 22:15:00,
2013-07-10 18:25:00,79.1,74.5,29.85,NE,46,0.0,0.0,86,0.00,,,0.03,Wunderground v.1.15,2013-07-10 22:25:00,
2013-07-10 18:30:00,79.0,74.8,29.85,NE,46,0.0,0.0,87,0.00,,,0.03,Wunderground v.1.15,2013-07-10 22:30:00,
2013-07-10 18:40:00,78.6,74.7,29.85,NE,46,0.0,0.0,88,0.00,,,0.03,Wunderground v.1.15,2013-07-10 22:40:00,
2013-07-10 18:50:00,77.8,74.0,29.85,NE,46,0.0,0.0,88,0.00,,,0.03,Wunderground v.1.15,2013-07-10 22:50:00,
2013-07-10 19:00:00,77.0,73.2,29.85,NE,38,0.0,0.0,88,0.00,,,0.03,Wunderground v.1.15,2013-07-10 23:00:00,
2013-07-10 19:05:00,76.7,73.2,29.85,NE,38,0.0,0.0,89,0.00,,,0.03,Wunderground v.1.15,2013-07-10 23:05:00,
2013-07-10 19:15:00,76.1,73.0,29.85,NE,40,0.0,0.0,90,0.00,,,0.03,Wunderground v.1.15,2013-07-10 23:15:00,
2013-07-10 19:25:00,75.6,72.8,29.85,ENE,63,0.0,0.0,91,0.00,,,0.03,Wunderground v.1.15,2013-07-10 23:25:00,
2013-07-10 19:35:00,75.2,72.4,29.85,ENE,59,0.0,0.0,91,0.00,,,0.03,Wunderground v.1.15,2013-07-10 23:35:00,
2013-07-10 19:45:00,74.8,72.3,29.85,ENE,59,0.0,0.0,92,0.00,,,0.04,Wunderground v.1.15,2013-07-10 23:45:00,
2013-07-10 19:50:00,74.5,72.0,29.85,ENE,71,0.0,0.0,92,0.00,,,0.04,Wunderground v.1.15,2013-07-10 23:50:00,
2013-07-10 20:00:00,74.0,71.8,29.85,ENE,65,0.0,0.0,93,0.04,,,0.05,Wunderground v.1.15,2013-07-11 00:00:00,
2013-07-10 20:10:00,73.6,71.4,29.85,NE,34,0.0,0.0,93,0.04,,,0.05,Wunderground v.1.15,2013-07-11 00:10:00,
2013-07-10 20:20:00,73.3,71.2,29.85,NE,34,0.0,0.0,93,0.00,,,0.05,Wunderground v.1.15,2013-07-11 00:20:00,
2013-07-10 20:30:00,73.2,71.4,29.85,NE,34,0.0,0.0,94,0.00,,,0.05,Wunderground v.1.15,2013-07-11 00:30:00,
2013-07-10 20:40:00,73.0,71.2,29.85,NE,34,0.0,0.0,94,0.00,,,0.05,Wunderground v.1.15,2013-07-11 00:40:00,
2013-07-10 20:50:00,72.9,71.1,29.86,NE,34,0.0,0.0,94,0.00,,,0.05,Wunderground v.1.15,2013-07-11 00:50:00,
2013-07-10 20:55:00,72.8,71.0,29.86,NE,34,0.0,0.0,94,0.00,,,0.05,Wunderground v.1.15,2013-07-11 00:55:00,
2013-07-10 21:05:00,72.7,70.9,29.87,NE,34,0.0,0.0,94,0.00,,,0.06,Wunderground v.1.15,2013-07-11 01:05:00,
2013-07-10 21:15:00,72.6,71.1,29.86,NE,34,0.0,0.0,95,0.00,,,0.06,Wunderground v.1.15,2013-07-11 01:15:00,
2013-07-10 21:20:00,72.6,71.1,29.86,NE,34,0.0,0.0,95,0.00,,,0.06,Wunderground v.1.15,2013-07-11 01:20:00,
2013-07-10 21:30:00,72.4,70.9,29.84,NE,34,0.0,0.0,95,0.00,,,0.06,Wunderground v.1.15,2013-07-11 01:30:00,
2013-07-10 21:40:00,72.1,70.6,29.84,NE,34,0.0,0.0,95,0.00,,,0.06,Wunderground v.1.15,2013-07-11 01:40:00,
2013-07-10 21:50:00,71.9,70.4,29.84,NE,34,0.0,0.0,95,0.00,,,0.06,Wunderground v.1.15,2013-07-11 01:50:00,
2013-07-10 22:00:00,71.8,70.6,29.84,NE,34,0.0,0.0,96,0.00,,,0.06,Wunderground v.1.15,2013-07-11 02:00:00,
2013-07-10 22:05:00,71.8,70.6,29.84,NE,34,0.0,0.0,96,0.00,,,0.06,Wunderground v.1.15,2013-07-11 02:05:00,
2013-07-10 22:15:00,71.9,70.7,29.85,NE,34,0.0,0.0,96,0.00,,,0.06,Wunderground v.1.15,2013-07-11 02:15:00,
2013-07-10 22:25:00,72.0,70.8,29.85,NE,34,0.0,0.0,96,0.00,,,0.06,Wunderground v.1.15,2013-07-11 02:25:00,
2013-07-10 22:35:00,71.8,70.6,29.85,NE,34,0.0,0.0,96,0.00,,,0.06,Wunderground v.1.15,2013-07-11 02:35:00,
2013-07-10 22:45:00,71.9,70.7,29.86,NE,34,0.0,0.0,96,0.00,,,0.06,Wunderground v.1.15,2013-07-11 02:45:00,
2013-07-10 22:55:00,71.9,70.7,29.86,NE,34,0.0,0.0,96,0.00,,,0.06,Wunderground v.1.15,2013-07-11 02:55:00,
2013-07-10 23:05:00,71.8,70.6,29.86,NE,34,0.0,0.0,96,0.00,,,0.06,Wunderground v.1.15,2013-07-11 03:05:00,
2013-07-10 23:15:00,71.7,70.5,29.85,NE,34,0.0,0.0,96,0.00,,,0.06,Wunderground v.1.15,2013-07-11 03:15:00,
2013-07-10 23:20:00,71.7,70.5,29.85,NE,34,0.0,0.0,96,0.00,,,0.06,Wunderground v.1.15,2013-07-11 03:20:00,
2013-07-10 23:30:00,71.5,70.3,29.85,NE,34,0.0,0.0,96,0.00,,,0.06,Wunderground v.1.15,2013-07-11 03:30:00,
2013-07-10 23:40:00,71.4,70.2,29.85,NE,34,0.0,0.0,96,0.00,,,0.06,Wunderground v.1.15,2013-07-11 03:40:00,
2013-07-10 23:45:00,71.3,70.1,29.85,NE,34,0.0,0.0,96,0.00,,,0.06,Wunderground v.1.15,2013-07-11 03:45:00,
2013-07-10 23:55:00,71.3,70.1,29.85,NE,34,0.0,0.0,96,0.00,,,0.06,Wunderground v.1.15,2013-07-11 03:55:00,